< < Back
Terminal Aerodrome Forecast


Current Version              Previous Versions:   1  2  3  4  5  6  7  8  9  

Terminal Aerodrome Forecast

585
FTUS42 KILM 200500
TAFFLO
TAF
KFLO 200520Z 2006/2106 VRB03KT P6SM SKC
     FM201500 20006KT P6SM SCT040
     FM202300 VRB03KT P6SM BKN040=

Latest METAR

036
SAUS70 KWBC 202100 RRI
MTRFLO
METAR KFLO 202053Z 22007KT 10SM CLR 23/12 A2999 RMK AO2 SLP153 T02330117
56022


USA.gov is the U.S. government's official web portal to all federal, state and local government web resources and services.